Event-Kalender
Terminkalender Drucken Email help
Jahresansicht Monatsansicht Wochenansicht Heute Suche Zum ausgwählten Monat wechseln
Termine für
Freitag, 7. April 2017



JEvents v1.5.5e   Copyright © 2006-2011

Zufallsbild

Aktuelle Termine

Mo Di Mi Do Fr Sa So
27 28 29 30 31 1 2
3 4 5 6 7 8 9
10 11 12 13 14 15 16
17 18 19 20 21 22 23
24 25 26 27 28 29 30

Pilotenwetter

[source: ADDS]
METAR
EDDH 121120Z 27008KT 3500 -SN BR BKN004 01/01 Q0998 R88/D TEMPO 6000 BKN006 =
TAF
TAF EDDH 121100Z 1212/1318 27008KT 7000 BKN007 BECMG 1214/1217 SCT009 BKN020 TEMPO 1217/1302 3500 SNRA BKN004 BECMG 1222/1301 21010KT TEMPO 1302/1305 BKN007 BECMG 1310/1313 OVC005 =